Steyr, Austria
Current Conditions -  °F | °C
As of 7:50 AM on Friday 28 Nov 2014 (Local Time) from LOWL Reporting Station
Broken Clouds Broken Clouds  
Wind Chill: -2°   Ceiling: 1100
Heat Index:   Visibility: 6mi
Dew Point:   Wind: 9mph
Humidity: 87%   Direction: 100°E
Pressure: 29.94"   Gusts: NA
Location:  48.04°N, 14.41°E
Report Text: LOWL 280650Z 10008KT 9999 BKN011 02/M00 Q1014 NOSIG
Loading
Personal Weather Stations






























Interactive Weather Map New forecast layout! Learn more

10-Day Weather Forecast

Advertisements
Track Severe Weather on mobile